sensor_id;sensor_type;location;lat;lon;timestamp;temperature;humidity
7516;DHT22;3799;47.184;8.538;2023-05-18T00:00:51;9.60;99.90
7516;DHT22;3799;47.184;8.538;2023-05-18T00:03:20;9.50;99.90
7516;DHT22;3799;47.184;8.538;2023-05-18T00:05:47;9.70;99.90
7516;DHT22;3799;47.184;8.538;2023-05-18T00:08:15;9.60;99.90
7516;DHT22;3799;47.184;8.538;2023-05-18T00:10:42;9.60;99.90
7516;DHT22;3799;47.184;8.538;2023-05-18T00:13:09;9.50;99.90
7516;DHT22;3799;47.184;8.538;2023-05-18T00:15:37;9.50;99.90
7516;DHT22;3799;47.184;8.538;2023-05-18T00:18:04;9.50;99.90
7516;DHT22;3799;47.184;8.538;2023-05-18T00:20:32;9.50;99.90
7516;DHT22;3799;47.184;8.538;2023-05-18T00:23:00;9.40;99.90
7516;DHT22;3799;47.184;8.538;2023-05-18T00:25:28;9.60;99.90
7516;DHT22;3799;47.184;8.538;2023-05-18T00:27:55;9.60;99.90
7516;DHT22;3799;47.184;8.538;2023-05-18T00:30:23;9.50;99.90
7516;DHT22;3799;47.184;8.538;2023-05-18T00:32:51;9.50;99.90
7516;DHT22;3799;47.184;8.538;2023-05-18T00:35:18;9.40;99.90
7516;DHT22;3799;47.184;8.538;2023-05-18T00:37:45;9.60;99.90
7516;DHT22;3799;47.184;8.538;2023-05-18T00:40:13;9.40;99.90
7516;DHT22;3799;47.184;8.538;2023-05-18T00:42:40;9.50;99.90
7516;DHT22;3799;47.184;8.538;2023-05-18T00:45:07;9.50;99.90
7516;DHT22;3799;47.184;8.538;2023-05-18T00:47:35;9.50;99.90
7516;DHT22;3799;47.184;8.538;2023-05-18T00:50:02;9.30;99.90
7516;DHT22;3799;47.184;8.538;2023-05-18T00:52:29;9.50;99.90
7516;DHT22;3799;47.184;8.538;2023-05-18T00:54:59;9.40;99.90
7516;DHT22;3799;47.184;8.538;2023-05-18T00:57:28;9.40;99.90
7516;DHT22;3799;47.184;8.538;2023-05-18T00:59:56;9.50;99.90
7516;DHT22;3799;47.184;8.538;2023-05-18T01:02:23;9.50;99.90
7516;DHT22;3799;47.184;8.538;2023-05-18T01:04:51;9.40;99.90
7516;DHT22;3799;47.184;8.538;2023-05-18T01:07:18;9.20;99.90
7516;DHT22;3799;47.184;8.538;2023-05-18T01:09:53;9.20;99.90
7516;DHT22;3799;47.184;8.538;2023-05-18T01:12:28;9.50;99.90
7516;DHT22;3799;47.184;8.538;2023-05-18T01:15:15;9.50;99.90
7516;DHT22;3799;47.184;8.538;2023-05-18T01:17:58;9.40;99.90
7516;DHT22;3799;47.184;8.538;2023-05-18T01:23:39;9.30;99.90
7516;DHT22;3799;47.184;8.538;2023-05-18T01:26:14;9.30;99.90
7516;DHT22;3799;47.184;8.538;2023-05-18T01:28:44;9.40;99.90
7516;DHT22;3799;47.184;8.538;2023-05-18T01:31:13;9.30;99.90
7516;DHT22;3799;47.184;8.538;2023-05-18T01:33:45;9.40;99.90
7516;DHT22;3799;47.184;8.538;2023-05-18T01:36:21;9.50;99.90
7516;DHT22;3799;47.184;8.538;2023-05-18T01:38:49;9.20;99.90
7516;DHT22;3799;47.184;8.538;2023-05-18T01:41:30;9.30;99.90
7516;DHT22;3799;47.184;8.538;2023-05-18T01:49:58;9.00;99.90
7516;DHT22;3799;47.184;8.538;2023-05-18T01:52:32;9.20;99.90
7516;DHT22;3799;47.184;8.538;2023-05-18T01:55:03;9.10;99.90
7516;DHT22;3799;47.184;8.538;2023-05-18T01:57:36;9.10;99.90
7516;DHT22;3799;47.184;8.538;2023-05-18T02:00:05;9.20;99.90
7516;DHT22;3799;47.184;8.538;2023-05-18T02:02:36;9.20;99.90
7516;DHT22;3799;47.184;8.538;2023-05-18T02:05:04;9.00;99.90
7516;DHT22;3799;47.184;8.538;2023-05-18T02:07:33;9.10;99.90
7516;DHT22;3799;47.184;8.538;2023-05-18T02:10:01;9.10;99.90
7516;DHT22;3799;47.184;8.538;2023-05-18T02:12:28;9.10;99.90
7516;DHT22;3799;47.184;8.538;2023-05-18T02:14:56;9.10;99.90
7516;DHT22;3799;47.184;8.538;2023-05-18T02:17:24;9.20;99.90
7516;DHT22;3799;47.184;8.538;2023-05-18T02:19:52;9.30;99.90
7516;DHT22;3799;47.184;8.538;2023-05-18T02:22:30;9.20;99.90
7516;DHT22;3799;47.184;8.538;2023-05-18T02:24:57;9.00;99.90
7516;DHT22;3799;47.184;8.538;2023-05-18T02:27:25;9.00;99.90
7516;DHT22;3799;47.184;8.538;2023-05-18T02:29:53;9.00;99.90
7516;DHT22;3799;47.184;8.538;2023-05-18T02:32:21;9.30;99.90
7516;DHT22;3799;47.184;8.538;2023-05-18T02:34:52;8.90;99.90
7516;DHT22;3799;47.184;8.538;2023-05-18T02:37:20;9.20;99.90
7516;DHT22;3799;47.184;8.538;2023-05-18T02:39:49;9.10;99.90
7516;DHT22;3799;47.184;8.538;2023-05-18T02:42:16;9.10;99.90
7516;DHT22;3799;47.184;8.538;2023-05-18T02:44:54;9.10;99.90
7516;DHT22;3799;47.184;8.538;2023-05-18T02:47:22;9.00;99.90
7516;DHT22;3799;47.184;8.538;2023-05-18T02:49:49;8.90;99.90
7516;DHT22;3799;47.184;8.538;2023-05-18T02:52:20;9.10;99.90
7516;DHT22;3799;47.184;8.538;2023-05-18T02:54:48;9.10;99.90
7516;DHT22;3799;47.184;8.538;2023-05-18T02:57:16;8.90;99.90
7516;DHT22;3799;47.184;8.538;2023-05-18T02:59:44;9.10;99.90
7516;DHT22;3799;47.184;8.538;2023-05-18T03:02:12;9.00;99.90
7516;DHT22;3799;47.184;8.538;2023-05-18T03:04:41;8.90;99.90
7516;DHT22;3799;47.184;8.538;2023-05-18T03:07:09;8.70;99.90
7516;DHT22;3799;47.184;8.538;2023-05-18T03:09:38;9.00;99.90
7516;DHT22;3799;47.184;8.538;2023-05-18T03:12:06;8.70;99.90
7516;DHT22;3799;47.184;8.538;2023-05-18T03:14:33;8.70;99.90
7516;DHT22;3799;47.184;8.538;2023-05-18T03:17:01;8.60;99.90
7516;DHT22;3799;47.184;8.538;2023-05-18T03:19:32;8.90;99.90
7516;DHT22;3799;47.184;8.538;2023-05-18T03:22:01;8.60;99.90
7516;DHT22;3799;47.184;8.538;2023-05-18T03:24:30;9.00;99.90
7516;DHT22;3799;47.184;8.538;2023-05-18T03:27:07;8.50;99.90
7516;DHT22;3799;47.184;8.538;2023-05-18T03:29:34;8.60;99.90
7516;DHT22;3799;47.184;8.538;2023-05-18T03:32:01;8.70;99.90
7516;DHT22;3799;47.184;8.538;2023-05-18T03:34:28;8.50;99.90
7516;DHT22;3799;47.184;8.538;2023-05-18T03:36:56;8.50;99.90
7516;DHT22;3799;47.184;8.538;2023-05-18T03:39:24;8.70;99.90
7516;DHT22;3799;47.184;8.538;2023-05-18T03:41:52;8.40;99.90
7516;DHT22;3799;47.184;8.538;2023-05-18T03:44:21;8.70;99.90
7516;DHT22;3799;47.184;8.538;2023-05-18T03:46:48;8.20;99.90
7516;DHT22;3799;47.184;8.538;2023-05-18T03:49:19;8.30;99.90
7516;DHT22;3799;47.184;8.538;2023-05-18T03:51:47;8.40;99.90
7516;DHT22;3799;47.184;8.538;2023-05-18T03:54:14;8.50;99.90
7516;DHT22;3799;47.184;8.538;2023-05-18T03:56:41;8.70;99.90
7516;DHT22;3799;47.184;8.538;2023-05-18T03:59:09;8.30;99.90
7516;DHT22;3799;47.184;8.538;2023-05-18T04:01:36;8.50;99.90
7516;DHT22;3799;47.184;8.538;2023-05-18T04:04:04;8.70;99.90
7516;DHT22;3799;47.184;8.538;2023-05-18T04:06:31;8.60;99.90
7516;DHT22;3799;47.184;8.538;2023-05-18T04:09:01;8.80;99.90
7516;DHT22;3799;47.184;8.538;2023-05-18T04:11:29;8.50;99.90
7516;DHT22;3799;47.184;8.538;2023-05-18T04:13:57;8.60;99.90
7516;DHT22;3799;47.184;8.538;2023-05-18T04:16:24;8.90;99.90
7516;DHT22;3799;47.184;8.538;2023-05-18T04:18:52;8.90;99.90
7516;DHT22;3799;47.184;8.538;2023-05-18T04:21:22;8.80;99.90
7516;DHT22;3799;47.184;8.538;2023-05-18T04:23:49;8.80;99.90
7516;DHT22;3799;47.184;8.538;2023-05-18T04:26:16;9.20;99.90
7516;DHT22;3799;47.184;8.538;2023-05-18T04:28:49;9.00;99.90
7516;DHT22;3799;47.184;8.538;2023-05-18T04:31:17;9.30;99.90
7516;DHT22;3799;47.184;8.538;2023-05-18T04:33:44;9.40;99.90
7516;DHT22;3799;47.184;8.538;2023-05-18T04:36:13;9.40;99.90
7516;DHT22;3799;47.184;8.538;2023-05-18T04:38:41;9.40;99.90
7516;DHT22;3799;47.184;8.538;2023-05-18T04:41:08;9.50;99.90
7516;DHT22;3799;47.184;8.538;2023-05-18T04:43:35;9.40;99.90
7516;DHT22;3799;47.184;8.538;2023-05-18T04:46:03;9.50;99.90
7516;DHT22;3799;47.184;8.538;2023-05-18T04:48:33;9.30;99.90
7516;DHT22;3799;47.184;8.538;2023-05-18T04:51:00;9.40;99.90
7516;DHT22;3799;47.184;8.538;2023-05-18T04:53:30;9.30;99.90
7516;DHT22;3799;47.184;8.538;2023-05-18T04:56:00;9.50;99.90
7516;DHT22;3799;47.184;8.538;2023-05-18T04:58:28;9.50;99.90
7516;DHT22;3799;47.184;8.538;2023-05-18T05:00:56;9.30;99.90
7516;DHT22;3799;47.184;8.538;2023-05-18T05:03:24;9.60;99.90
7516;DHT22;3799;47.184;8.538;2023-05-18T05:05:51;9.60;99.90
7516;DHT22;3799;47.184;8.538;2023-05-18T05:08:18;9.80;99.90
7516;DHT22;3799;47.184;8.538;2023-05-18T05:10:45;9.60;99.90
7516;DHT22;3799;47.184;8.538;2023-05-18T05:13:12;9.70;99.90
7516;DHT22;3799;47.184;8.538;2023-05-18T05:15:39;9.60;99.90
7516;DHT22;3799;47.184;8.538;2023-05-18T05:18:07;9.80;99.90
7516;DHT22;3799;47.184;8.538;2023-05-18T05:20:34;9.90;99.90
7516;DHT22;3799;47.184;8.538;2023-05-18T05:23:02;9.80;99.90
7516;DHT22;3799;47.184;8.538;2023-05-18T05:25:29;9.90;99.90
7516;DHT22;3799;47.184;8.538;2023-05-18T05:27:57;9.70;99.90
7516;DHT22;3799;47.184;8.538;2023-05-18T05:30:25;9.80;99.90
7516;DHT22;3799;47.184;8.538;2023-05-18T05:32:52;10.10;99.90
7516;DHT22;3799;47.184;8.538;2023-05-18T05:35:20;10.20;99.90
7516;DHT22;3799;47.184;8.538;2023-05-18T05:37:50;10.20;99.90
7516;DHT22;3799;47.184;8.538;2023-05-18T05:40:18;10.40;99.90
7516;DHT22;3799;47.184;8.538;2023-05-18T05:42:45;10.30;99.90
7516;DHT22;3799;47.184;8.538;2023-05-18T05:45:13;10.60;99.90
7516;DHT22;3799;47.184;8.538;2023-05-18T05:47:40;10.30;99.90
7516;DHT22;3799;47.184;8.538;2023-05-18T05:50:08;10.60;99.90
7516;DHT22;3799;47.184;8.538;2023-05-18T05:52:36;10.40;99.90
7516;DHT22;3799;47.184;8.538;2023-05-18T05:55:03;10.50;99.90
7516;DHT22;3799;47.184;8.538;2023-05-18T05:57:31;10.70;99.90
7516;DHT22;3799;47.184;8.538;2023-05-18T05:59:58;10.90;99.90
7516;DHT22;3799;47.184;8.538;2023-05-18T06:02:25;10.70;99.90
7516;DHT22;3799;47.184;8.538;2023-05-18T06:04:53;10.90;99.90
7516;DHT22;3799;47.184;8.538;2023-05-18T06:07:20;10.70;99.90
7516;DHT22;3799;47.184;8.538;2023-05-18T06:09:48;11.10;99.90
7516;DHT22;3799;47.184;8.538;2023-05-18T06:12:16;10.90;99.90
7516;DHT22;3799;47.184;8.538;2023-05-18T06:14:43;10.90;99.90
7516;DHT22;3799;47.184;8.538;2023-05-18T06:17:10;10.90;99.90
7516;DHT22;3799;47.184;8.538;2023-05-18T06:19:38;10.90;99.90
7516;DHT22;3799;47.184;8.538;2023-05-18T06:22:06;11.20;99.90
7516;DHT22;3799;47.184;8.538;2023-05-18T06:24:33;11.30;99.90
7516;DHT22;3799;47.184;8.538;2023-05-18T06:27:00;11.40;99.90
7516;DHT22;3799;47.184;8.538;2023-05-18T06:29:27;11.20;99.90
7516;DHT22;3799;47.184;8.538;2023-05-18T06:31:56;11.30;99.90
7516;DHT22;3799;47.184;8.538;2023-05-18T06:34:24;11.10;99.90
7516;DHT22;3799;47.184;8.538;2023-05-18T06:36:52;11.40;99.90
7516;DHT22;3799;47.184;8.538;2023-05-18T06:39:19;11.50;99.90
7516;DHT22;3799;47.184;8.538;2023-05-18T06:41:46;11.10;99.90
7516;DHT22;3799;47.184;8.538;2023-05-18T06:44:14;11.20;99.90
7516;DHT22;3799;47.184;8.538;2023-05-18T06:46:41;11.20;99.90
7516;DHT22;3799;47.184;8.538;2023-05-18T06:49:09;11.40;99.90
7516;DHT22;3799;47.184;8.538;2023-05-18T06:51:36;11.40;99.90
7516;DHT22;3799;47.184;8.538;2023-05-18T06:54:03;11.20;99.90
7516;DHT22;3799;47.184;8.538;2023-05-18T06:56:31;11.50;99.90
7516;DHT22;3799;47.184;8.538;2023-05-18T06:58:58;11.50;99.90
7516;DHT22;3799;47.184;8.538;2023-05-18T07:01:26;11.60;99.90
7516;DHT22;3799;47.184;8.538;2023-05-18T07:03:54;11.50;99.90
7516;DHT22;3799;47.184;8.538;2023-05-18T07:06:21;11.50;99.90
7516;DHT22;3799;47.184;8.538;2023-05-18T07:08:49;11.80;99.90
7516;DHT22;3799;47.184;8.538;2023-05-18T07:11:16;11.80;99.90
7516;DHT22;3799;47.184;8.538;2023-05-18T07:13:44;11.90;99.90
7516;DHT22;3799;47.184;8.538;2023-05-18T07:16:18;11.50;99.90
7516;DHT22;3799;47.184;8.538;2023-05-18T07:18:48;11.80;99.90
7516;DHT22;3799;47.184;8.538;2023-05-18T07:21:15;11.60;99.90
7516;DHT22;3799;47.184;8.538;2023-05-18T07:23:43;11.70;99.90
7516;DHT22;3799;47.184;8.538;2023-05-18T07:26:10;11.80;99.90
7516;DHT22;3799;47.184;8.538;2023-05-18T07:28:38;11.80;99.90
7516;DHT22;3799;47.184;8.538;2023-05-18T07:31:05;11.80;99.90
7516;DHT22;3799;47.184;8.538;2023-05-18T07:33:40;11.90;99.90
7516;DHT22;3799;47.184;8.538;2023-05-18T07:36:08;11.60;99.90
7516;DHT22;3799;47.184;8.538;2023-05-18T07:38:35;11.90;99.90
7516;DHT22;3799;47.184;8.538;2023-05-18T07:41:06;12.00;99.90
7516;DHT22;3799;47.184;8.538;2023-05-18T07:43:33;12.10;99.90
7516;DHT22;3799;47.184;8.538;2023-05-18T07:46:01;12.00;99.90
7516;DHT22;3799;47.184;8.538;2023-05-18T07:48:28;12.10;99.90
7516;DHT22;3799;47.184;8.538;2023-05-18T07:50:58;12.40;99.90
7516;DHT22;3799;47.184;8.538;2023-05-18T07:53:26;12.40;99.90
7516;DHT22;3799;47.184;8.538;2023-05-18T07:55:53;12.50;99.90
7516;DHT22;3799;47.184;8.538;2023-05-18T07:58:21;12.50;99.90
7516;DHT22;3799;47.184;8.538;2023-05-18T08:00:49;12.50;99.90
7516;DHT22;3799;47.184;8.538;2023-05-18T08:03:17;12.60;99.90
7516;DHT22;3799;47.184;8.538;2023-05-18T08:05:45;12.40;99.90
7516;DHT22;3799;47.184;8.538;2023-05-18T08:08:12;12.80;99.90
7516;DHT22;3799;47.184;8.538;2023-05-18T08:10:41;12.50;99.90
7516;DHT22;3799;47.184;8.538;2023-05-18T08:13:09;12.60;99.90
7516;DHT22;3799;47.184;8.538;2023-05-18T08:15:38;12.90;99.90
7516;DHT22;3799;47.184;8.538;2023-05-18T08:18:07;12.70;99.90
7516;DHT22;3799;47.184;8.538;2023-05-18T08:20:34;12.90;99.90
7516;DHT22;3799;47.184;8.538;2023-05-18T08:23:02;13.30;99.90
7516;DHT22;3799;47.184;8.538;2023-05-18T08:25:38;13.60;99.90
7516;DHT22;3799;47.184;8.538;2023-05-18T08:28:05;13.80;99.90
7516;DHT22;3799;47.184;8.538;2023-05-18T08:30:33;13.80;99.90
7516;DHT22;3799;47.184;8.538;2023-05-18T08:33:00;13.80;99.90
7516;DHT22;3799;47.184;8.538;2023-05-18T08:35:29;13.70;99.90
7516;DHT22;3799;47.184;8.538;2023-05-18T08:37:58;13.80;99.90
7516;DHT22;3799;47.184;8.538;2023-05-18T08:40:32;13.90;99.90
7516;DHT22;3799;47.184;8.538;2023-05-18T08:43:06;13.70;99.90
7516;DHT22;3799;47.184;8.538;2023-05-18T08:48:44;14.60;99.90
7516;DHT22;3799;47.184;8.538;2023-05-18T08:51:16;14.70;98.30
7516;DHT22;3799;47.184;8.538;2023-05-18T08:53:52;14.50;97.20
7516;DHT22;3799;47.184;8.538;2023-05-18T08:56:22;14.30;94.90
7516;DHT22;3799;47.184;8.538;2023-05-18T08:58:57;14.40;96.30
7516;DHT22;3799;47.184;8.538;2023-05-18T09:01:25;14.10;97.10
7516;DHT22;3799;47.184;8.538;2023-05-18T09:03:56;14.00;96.80
7516;DHT22;3799;47.184;8.538;2023-05-18T09:06:25;14.20;96.10
7516;DHT22;3799;47.184;8.538;2023-05-18T09:08:55;14.30;95.80
7516;DHT22;3799;47.184;8.538;2023-05-18T09:11:26;14.80;95.10
7516;DHT22;3799;47.184;8.538;2023-05-18T09:13:54;14.80;94.80
7516;DHT22;3799;47.184;8.538;2023-05-18T09:16:21;15.00;94.30
7516;DHT22;3799;47.184;8.538;2023-05-18T09:18:48;15.40;91.00
7516;DHT22;3799;47.184;8.538;2023-05-18T09:21:16;15.30;90.50
7516;DHT22;3799;47.184;8.538;2023-05-18T09:23:43;15.50;89.40
7516;DHT22;3799;47.184;8.538;2023-05-18T09:26:12;15.60;88.40
7516;DHT22;3799;47.184;8.538;2023-05-18T09:28:42;15.60;90.30
7516;DHT22;3799;47.184;8.538;2023-05-18T09:31:11;15.80;90.50
7516;DHT22;3799;47.184;8.538;2023-05-18T09:33:43;15.80;88.90
7516;DHT22;3799;47.184;8.538;2023-05-18T09:36:11;15.80;85.00
7516;DHT22;3799;47.184;8.538;2023-05-18T09:38:40;15.90;85.90
7516;DHT22;3799;47.184;8.538;2023-05-18T09:41:17;15.50;87.80
7516;DHT22;3799;47.184;8.538;2023-05-18T09:43:47;15.30;85.60
7516;DHT22;3799;47.184;8.538;2023-05-18T09:46:24;15.40;85.50
7516;DHT22;3799;47.184;8.538;2023-05-18T09:48:57;15.50;86.70
7516;DHT22;3799;47.184;8.538;2023-05-18T09:51:25;15.40;86.60
7516;DHT22;3799;47.184;8.538;2023-05-18T09:53:54;15.30;87.10
7516;DHT22;3799;47.184;8.538;2023-05-18T09:56:28;15.10;88.90
7516;DHT22;3799;47.184;8.538;2023-05-18T09:58:57;15.00;88.90
7516;DHT22;3799;47.184;8.538;2023-05-18T10:01:25;14.90;88.40
7516;DHT22;3799;47.184;8.538;2023-05-18T10:04:01;14.80;88.30
7516;DHT22;3799;47.184;8.538;2023-05-18T10:06:30;14.80;90.80
7516;DHT22;3799;47.184;8.538;2023-05-18T10:09:01;15.10;87.80
7516;DHT22;3799;47.184;8.538;2023-05-18T10:11:32;14.90;89.00
7516;DHT22;3799;47.184;8.538;2023-05-18T10:14:01;15.00;88.80
7516;DHT22;3799;47.184;8.538;2023-05-18T10:16:28;14.70;87.40
7516;DHT22;3799;47.184;8.538;2023-05-18T10:18:55;14.90;87.20
7516;DHT22;3799;47.184;8.538;2023-05-18T10:21:23;14.70;87.10
7516;DHT22;3799;47.184;8.538;2023-05-18T10:23:53;15.10;88.50
7516;DHT22;3799;47.184;8.538;2023-05-18T10:26:22;15.20;86.60
7516;DHT22;3799;47.184;8.538;2023-05-18T10:28:54;15.20;85.10
7516;DHT22;3799;47.184;8.538;2023-05-18T10:31:23;15.20;85.40
7516;DHT22;3799;47.184;8.538;2023-05-18T10:33:52;15.30;83.80
7516;DHT22;3799;47.184;8.538;2023-05-18T10:36:21;15.60;83.20
7516;DHT22;3799;47.184;8.538;2023-05-18T10:38:51;16.00;82.50
7516;DHT22;3799;47.184;8.538;2023-05-18T10:41:23;16.20;78.10
7516;DHT22;3799;47.184;8.538;2023-05-18T10:43:52;16.20;76.60
7516;DHT22;3799;47.184;8.538;2023-05-18T10:46:23;16.00;75.90
7516;DHT22;3799;47.184;8.538;2023-05-18T10:48:54;16.30;74.40
7516;DHT22;3799;47.184;8.538;2023-05-18T10:51:25;16.40;72.50
7516;DHT22;3799;47.184;8.538;2023-05-18T10:53:54;16.80;72.30
7516;DHT22;3799;47.184;8.538;2023-05-18T10:56:28;16.90;69.20
7516;DHT22;3799;47.184;8.538;2023-05-18T10:58:55;17.20;68.90
7516;DHT22;3799;47.184;8.538;2023-05-18T11:01:23;17.50;67.80
7516;DHT22;3799;47.184;8.538;2023-05-18T11:03:51;17.30;63.80
7516;DHT22;3799;47.184;8.538;2023-05-18T11:06:22;17.20;63.90
7516;DHT22;3799;47.184;8.538;2023-05-18T11:08:50;17.30;63.30
7516;DHT22;3799;47.184;8.538;2023-05-18T11:11:23;17.40;62.90
7516;DHT22;3799;47.184;8.538;2023-05-18T11:13:59;17.50;60.70
7516;DHT22;3799;47.184;8.538;2023-05-18T11:16:34;17.30;60.80
7516;DHT22;3799;47.184;8.538;2023-05-18T11:19:06;17.60;61.80
7516;DHT22;3799;47.184;8.538;2023-05-18T11:24:21;18.20;59.50
7516;DHT22;3799;47.184;8.538;2023-05-18T11:29:23;19.00;58.00
7516;DHT22;3799;47.184;8.538;2023-05-18T11:31:52;18.80;58.00
7516;DHT22;3799;47.184;8.538;2023-05-18T11:34:34;18.70;57.90
7516;DHT22;3799;47.184;8.538;2023-05-18T11:37:06;18.60;58.60
7516;DHT22;3799;47.184;8.538;2023-05-18T11:39:36;18.60;58.00
7516;DHT22;3799;47.184;8.538;2023-05-18T11:42:18;18.80;57.30
7516;DHT22;3799;47.184;8.538;2023-05-18T11:44:52;19.00;56.60
7516;DHT22;3799;47.184;8.538;2023-05-18T11:47:28;18.80;55.80
7516;DHT22;3799;47.184;8.538;2023-05-18T11:49:57;19.10;55.60
7516;DHT22;3799;47.184;8.538;2023-05-18T11:52:26;19.10;54.80
7516;DHT22;3799;47.184;8.538;2023-05-18T11:54:55;19.30;55.10
7516;DHT22;3799;47.184;8.538;2023-05-18T11:57:39;19.10;55.40
7516;DHT22;3799;47.184;8.538;2023-05-18T12:00:08;18.90;55.60
7516;DHT22;3799;47.184;8.538;2023-05-18T12:02:42;18.70;56.10
7516;DHT22;3799;47.184;8.538;2023-05-18T12:05:10;18.60;55.20
7516;DHT22;3799;47.184;8.538;2023-05-18T12:07:39;18.90;55.80
7516;DHT22;3799;47.184;8.538;2023-05-18T12:10:12;19.40;55.80
7516;DHT22;3799;47.184;8.538;2023-05-18T12:12:54;19.40;54.30
7516;DHT22;3799;47.184;8.538;2023-05-18T12:15:26;19.80;54.10
7516;DHT22;3799;47.184;8.538;2023-05-18T12:17:57;19.50;53.70
7516;DHT22;3799;47.184;8.538;2023-05-18T12:20:24;19.80;53.40
7516;DHT22;3799;47.184;8.538;2023-05-18T12:22:54;19.60;53.50
7516;DHT22;3799;47.184;8.538;2023-05-18T12:25:23;19.40;53.90
7516;DHT22;3799;47.184;8.538;2023-05-18T12:27:53;19.30;54.20
7516;DHT22;3799;47.184;8.538;2023-05-18T12:30:23;19.40;54.50
7516;DHT22;3799;47.184;8.538;2023-05-18T12:32:53;18.90;53.90
7516;DHT22;3799;47.184;8.538;2023-05-18T12:35:25;18.50;54.30
7516;DHT22;3799;47.184;8.538;2023-05-18T12:37:53;18.10;54.70
7516;DHT22;3799;47.184;8.538;2023-05-18T12:40:22;17.70;55.40
7516;DHT22;3799;47.184;8.538;2023-05-18T12:42:57;17.60;55.80
7516;DHT22;3799;47.184;8.538;2023-05-18T12:45:31;17.60;56.80
7516;DHT22;3799;47.184;8.538;2023-05-18T12:48:06;17.10;56.70
7516;DHT22;3799;47.184;8.538;2023-05-18T12:50:34;17.00;56.60
7516;DHT22;3799;47.184;8.538;2023-05-18T12:53:03;17.20;57.10
7516;DHT22;3799;47.184;8.538;2023-05-18T12:55:31;16.80;57.50
7516;DHT22;3799;47.184;8.538;2023-05-18T12:58:05;16.70;57.90
7516;DHT22;3799;47.184;8.538;2023-05-18T13:00:35;16.50;58.00
7516;DHT22;3799;47.184;8.538;2023-05-18T13:03:07;16.60;58.70
7516;DHT22;3799;47.184;8.538;2023-05-18T13:05:44;16.50;59.80
7516;DHT22;3799;47.184;8.538;2023-05-18T13:08:16;16.10;59.10
7516;DHT22;3799;47.184;8.538;2023-05-18T13:10:48;16.10;59.90
7516;DHT22;3799;47.184;8.538;2023-05-18T13:13:35;16.30;60.70
7516;DHT22;3799;47.184;8.538;2023-05-18T13:16:03;16.10;61.00
7516;DHT22;3799;47.184;8.538;2023-05-18T13:18:30;16.10;62.50
7516;DHT22;3799;47.184;8.538;2023-05-18T13:20:58;16.00;62.70
7516;DHT22;3799;47.184;8.538;2023-05-18T13:23:27;16.00;63.20
7516;DHT22;3799;47.184;8.538;2023-05-18T13:25:54;15.90;63.70
7516;DHT22;3799;47.184;8.538;2023-05-18T13:28:25;15.90;64.20
7516;DHT22;3799;47.184;8.538;2023-05-18T13:30:53;15.80;64.40
7516;DHT22;3799;47.184;8.538;2023-05-18T13:33:20;15.80;63.30
7516;DHT22;3799;47.184;8.538;2023-05-18T13:35:48;15.90;64.20
7516;DHT22;3799;47.184;8.538;2023-05-18T13:38:16;15.70;63.50
7516;DHT22;3799;47.184;8.538;2023-05-18T13:40:48;15.80;64.40
7516;DHT22;3799;47.184;8.538;2023-05-18T13:43:16;15.90;63.50
7516;DHT22;3799;47.184;8.538;2023-05-18T13:45:43;16.00;64.10
7516;DHT22;3799;47.184;8.538;2023-05-18T13:48:10;16.10;63.40
7516;DHT22;3799;47.184;8.538;2023-05-18T13:50:38;16.30;63.70
7516;DHT22;3799;47.184;8.538;2023-05-18T13:53:05;16.20;66.00
7516;DHT22;3799;47.184;8.538;2023-05-18T13:55:34;16.60;65.40
7516;DHT22;3799;47.184;8.538;2023-05-18T13:58:02;16.20;63.50
7516;DHT22;3799;47.184;8.538;2023-05-18T14:00:29;16.40;64.40
7516;DHT22;3799;47.184;8.538;2023-05-18T14:02:59;16.70;63.10
7516;DHT22;3799;47.184;8.538;2023-05-18T14:05:30;16.60;63.00
7516;DHT22;3799;47.184;8.538;2023-05-18T14:07:58;16.50;63.70
7516;DHT22;3799;47.184;8.538;2023-05-18T14:10:25;16.60;64.10
7516;DHT22;3799;47.184;8.538;2023-05-18T14:12:53;16.40;63.30
7516;DHT22;3799;47.184;8.538;2023-05-18T14:15:20;16.70;62.60
7516;DHT22;3799;47.184;8.538;2023-05-18T14:17:53;16.60;62.70
7516;DHT22;3799;47.184;8.538;2023-05-18T14:20:21;16.70;62.00
7516;DHT22;3799;47.184;8.538;2023-05-18T14:22:48;16.50;62.80
7516;DHT22;3799;47.184;8.538;2023-05-18T14:25:16;16.40;62.60
7516;DHT22;3799;47.184;8.538;2023-05-18T14:27:44;16.20;63.70
7516;DHT22;3799;47.184;8.538;2023-05-18T14:30:12;16.00;64.50
7516;DHT22;3799;47.184;8.538;2023-05-18T14:32:39;16.10;65.80
7516;DHT22;3799;47.184;8.538;2023-05-18T14:35:07;16.10;66.90
7516;DHT22;3799;47.184;8.538;2023-05-18T14:37:35;16.10;66.20
7516;DHT22;3799;47.184;8.538;2023-05-18T14:40:02;15.90;66.30
7516;DHT22;3799;47.184;8.538;2023-05-18T14:42:47;16.00;65.50
7516;DHT22;3799;47.184;8.538;2023-05-18T14:45:14;15.90;66.40
7516;DHT22;3799;47.184;8.538;2023-05-18T14:47:43;15.90;66.70
7516;DHT22;3799;47.184;8.538;2023-05-18T14:50:14;16.00;66.70
7516;DHT22;3799;47.184;8.538;2023-05-18T14:52:43;16.00;66.80
7516;DHT22;3799;47.184;8.538;2023-05-18T14:55:17;15.70;67.00
7516;DHT22;3799;47.184;8.538;2023-05-18T14:57:44;16.00;68.10
7516;DHT22;3799;47.184;8.538;2023-05-18T15:00:12;15.70;68.50
7516;DHT22;3799;47.184;8.538;2023-05-18T15:02:40;15.60;69.30
7516;DHT22;3799;47.184;8.538;2023-05-18T15:05:08;15.40;69.10
7516;DHT22;3799;47.184;8.538;2023-05-18T15:07:36;15.90;71.60
7516;DHT22;3799;47.184;8.538;2023-05-18T15:10:04;15.40;70.70
7516;DHT22;3799;47.184;8.538;2023-05-18T15:12:32;15.40;71.60
7516;DHT22;3799;47.184;8.538;2023-05-18T15:15:00;15.50;72.40
7516;DHT22;3799;47.184;8.538;2023-05-18T15:17:27;15.70;72.40
7516;DHT22;3799;47.184;8.538;2023-05-18T15:19:54;15.50;72.00
7516;DHT22;3799;47.184;8.538;2023-05-18T15:22:22;15.30;71.80
7516;DHT22;3799;47.184;8.538;2023-05-18T15:24:50;15.20;72.60
7516;DHT22;3799;47.184;8.538;2023-05-18T15:27:17;15.20;73.80
7516;DHT22;3799;47.184;8.538;2023-05-18T15:29:44;15.10;74.50
7516;DHT22;3799;47.184;8.538;2023-05-18T15:32:19;15.30;75.50
7516;DHT22;3799;47.184;8.538;2023-05-18T15:34:46;15.20;75.20
7516;DHT22;3799;47.184;8.538;2023-05-18T15:37:13;15.20;75.20
7516;DHT22;3799;47.184;8.538;2023-05-18T15:39:41;15.20;75.70
7516;DHT22;3799;47.184;8.538;2023-05-18T15:42:08;15.30;76.60
7516;DHT22;3799;47.184;8.538;2023-05-18T15:44:36;15.10;78.60
7516;DHT22;3799;47.184;8.538;2023-05-18T15:47:04;15.20;79.20
7516;DHT22;3799;47.184;8.538;2023-05-18T15:49:31;15.00;80.10
7516;DHT22;3799;47.184;8.538;2023-05-18T15:51:59;14.60;80.90
7516;DHT22;3799;47.184;8.538;2023-05-18T15:54:26;14.90;82.10
7516;DHT22;3799;47.184;8.538;2023-05-18T15:56:53;14.70;82.70
7516;DHT22;3799;47.184;8.538;2023-05-18T15:59:21;14.80;82.70
7516;DHT22;3799;47.184;8.538;2023-05-18T16:01:48;14.60;83.10
7516;DHT22;3799;47.184;8.538;2023-05-18T16:04:16;14.70;84.90
7516;DHT22;3799;47.184;8.538;2023-05-18T16:06:44;14.90;83.70
7516;DHT22;3799;47.184;8.538;2023-05-18T16:09:11;15.00;82.70
7516;DHT22;3799;47.184;8.538;2023-05-18T16:11:38;15.00;83.40
7516;DHT22;3799;47.184;8.538;2023-05-18T16:14:05;14.80;82.70
7516;DHT22;3799;47.184;8.538;2023-05-18T16:16:33;14.80;82.40
7516;DHT22;3799;47.184;8.538;2023-05-18T16:19:00;14.60;82.60
7516;DHT22;3799;47.184;8.538;2023-05-18T16:21:29;14.60;82.90
7516;DHT22;3799;47.184;8.538;2023-05-18T16:23:58;14.90;84.30
7516;DHT22;3799;47.184;8.538;2023-05-18T16:26:25;15.00;84.60
7516;DHT22;3799;47.184;8.538;2023-05-18T16:28:52;14.60;83.10
7516;DHT22;3799;47.184;8.538;2023-05-18T16:31:20;14.80;83.10
7516;DHT22;3799;47.184;8.538;2023-05-18T16:33:47;14.80;84.00
7516;DHT22;3799;47.184;8.538;2023-05-18T16:36:15;14.60;85.30